createdAt,value
2023-05-05T00:00:57.339Z,95.80
2023-05-05T00:03:25.322Z,95.90
2023-05-05T00:05:54.409Z,95.80
2023-05-05T00:08:23.096Z,96.00
2023-05-05T00:10:51.465Z,95.70
2023-05-05T00:13:19.210Z,95.70
2023-05-05T00:15:47.571Z,95.80
2023-05-05T00:18:16.148Z,95.90
2023-05-05T00:20:43.301Z,95.90
2023-05-05T00:23:10.346Z,95.80
2023-05-05T00:25:38.763Z,95.90
2023-05-05T00:28:05.918Z,95.90
2023-05-05T00:30:33.440Z,96.00
2023-05-05T00:33:00.633Z,96.10
2023-05-05T00:35:27.725Z,95.80
2023-05-05T00:37:55.080Z,96.10
2023-05-05T00:40:22.082Z,95.90
2023-05-05T00:42:53.408Z,95.80
2023-05-05T00:45:20.686Z,95.70
2023-05-05T00:47:49.583Z,95.90
2023-05-05T00:50:23.639Z,96.10
2023-05-05T00:52:52.962Z,96.20
2023-05-05T00:55:20.636Z,96.30
2023-05-05T00:57:49.991Z,96.30
2023-05-05T01:00:17.860Z,96.40
2023-05-05T01:02:45.225Z,96.40
2023-05-05T01:05:14.313Z,96.50
2023-05-05T01:07:53.310Z,96.40
2023-05-05T01:10:27.211Z,96.40
2023-05-05T01:13:06.770Z,96.40
2023-05-05T01:15:37.641Z,96.60
2023-05-05T01:18:11.640Z,96.90
2023-05-05T01:20:44.718Z,96.90
2023-05-05T01:23:20.049Z,97.20
2023-05-05T01:26:14.654Z,97.30
2023-05-05T01:29:03.067Z,97.40
2023-05-05T01:31:51.860Z,97.70
2023-05-05T01:34:23.174Z,97.90
2023-05-05T01:36:56.964Z,98.10
2023-05-05T01:39:28.826Z,98.10
2023-05-05T01:42:00.154Z,98.20
2023-05-05T01:44:30.707Z,98.30
2023-05-05T01:47:00.601Z,98.40
2023-05-05T01:49:28.762Z,98.40
2023-05-05T01:51:57.594Z,98.40
2023-05-05T01:54:26.119Z,98.60
2023-05-05T01:56:56.363Z,98.60
2023-05-05T01:59:26.428Z,98.60
2023-05-05T02:01:54.299Z,98.70
2023-05-05T02:04:24.236Z,98.70
2023-05-05T02:06:53.088Z,98.70
2023-05-05T02:09:21.545Z,98.80
2023-05-05T02:11:49.054Z,98.90
2023-05-05T02:14:19.141Z,99.00
2023-05-05T02:16:47.274Z,99.20
2023-05-05T02:19:15.681Z,99.20
2023-05-05T02:21:43.935Z,99.30
2023-05-05T02:24:11.420Z,99.20
2023-05-05T02:26:40.127Z,99.30
2023-05-05T02:29:10.336Z,99.40
2023-05-05T02:31:43.942Z,99.50
2023-05-05T02:34:13.486Z,99.60
2023-05-05T02:36:45.019Z,99.70
2023-05-05T02:39:16.836Z,99.80
2023-05-05T02:41:47.168Z,99.70
2023-05-05T02:44:24.612Z,99.90
2023-05-05T02:46:52.019Z,99.90
2023-05-05T02:49:19.686Z,99.90
2023-05-05T02:51:48.528Z,99.90
2023-05-05T02:54:22.339Z,99.90
2023-05-05T02:56:51.503Z,99.90
2023-05-05T02:59:28.146Z,99.90
2023-05-05T03:02:09.267Z,99.90
2023-05-05T03:04:40.302Z,99.90
2023-05-05T03:07:13.212Z,99.90
2023-05-05T03:09:47.014Z,99.90
2023-05-05T03:12:20.220Z,99.90
2023-05-05T03:14:59.611Z,99.90
2023-05-05T03:17:30.870Z,99.90
2023-05-05T03:20:00.531Z,99.90
2023-05-05T03:22:36.903Z,99.90
2023-05-05T03:25:06.122Z,99.90
2023-05-05T03:27:33.001Z,99.90
2023-05-05T03:29:59.976Z,99.90
2023-05-05T03:32:27.351Z,99.90
2023-05-05T03:34:55.370Z,99.90
2023-05-05T03:37:27.132Z,99.90
2023-05-05T03:39:55.575Z,99.90
2023-05-05T03:42:22.608Z,99.90
2023-05-05T03:44:52.107Z,99.90
2023-05-05T03:47:19.753Z,99.90
2023-05-05T03:49:46.870Z,99.90
2023-05-05T03:52:15.037Z,99.90
2023-05-05T03:54:43.123Z,99.90
2023-05-05T03:57:11.387Z,99.90
2023-05-05T03:59:38.262Z,99.90
2023-05-05T04:02:05.774Z,99.90
2023-05-05T04:04:32.957Z,99.90
2023-05-05T04:06:59.981Z,99.90
2023-05-05T04:09:26.896Z,99.90
2023-05-05T04:11:53.751Z,99.90
2023-05-05T04:14:22.245Z,99.90
2023-05-05T04:16:49.523Z,99.90
2023-05-05T04:19:17.489Z,99.90
2023-05-05T04:21:44.960Z,99.90
2023-05-05T04:24:11.957Z,99.90
2023-05-05T04:26:38.825Z,99.90
2023-05-05T04:29:05.722Z,99.90
2023-05-05T04:31:34.666Z,99.90
2023-05-05T04:34:02.289Z,99.90
2023-05-05T04:36:29.212Z,99.90
2023-05-05T04:38:56.136Z,99.90
2023-05-05T04:41:23.077Z,99.90
2023-05-05T04:43:49.947Z,99.90
2023-05-05T04:46:16.897Z,99.90
2023-05-05T04:48:45.294Z,99.90
2023-05-05T04:51:13.070Z,99.90
2023-05-05T04:53:40.759Z,99.90
2023-05-05T04:56:08.047Z,99.90
2023-05-05T04:58:35.962Z,99.90
2023-05-05T05:01:03.340Z,99.90
2023-05-05T05:03:32.016Z,99.90
2023-05-05T05:06:00.408Z,99.90
2023-05-05T05:08:27.280Z,99.90
2023-05-05T05:10:54.092Z,99.90
2023-05-05T05:13:20.960Z,99.90
2023-05-05T05:15:47.944Z,99.90
2023-05-05T05:18:14.864Z,99.90
2023-05-05T05:20:42.006Z,99.90
2023-05-05T05:23:10.449Z,99.90
2023-05-05T05:25:42.798Z,99.90
2023-05-05T05:28:10.937Z,99.90
2023-05-05T05:30:44.306Z,99.90
2023-05-05T05:33:11.786Z,99.90
2023-05-05T05:35:39.778Z,99.90
2023-05-05T05:38:06.975Z,99.90
2023-05-05T05:40:35.567Z,99.90
2023-05-05T05:43:03.155Z,99.90
2023-05-05T05:45:30.553Z,99.90
2023-05-05T05:47:57.538Z,99.90
2023-05-05T05:50:27.158Z,99.90
2023-05-05T05:52:54.305Z,99.90
2023-05-05T05:55:21.781Z,99.90
2023-05-05T05:57:50.056Z,99.90
2023-05-05T06:00:17.850Z,99.90
2023-05-05T06:02:51.595Z,99.90
2023-05-05T06:05:21.676Z,99.90
2023-05-05T06:07:50.469Z,99.90
2023-05-05T06:10:27.499Z,99.90
2023-05-05T06:13:02.384Z,99.90
2023-05-05T06:15:30.998Z,99.90
2023-05-05T06:17:58.612Z,99.90
2023-05-05T06:20:26.274Z,99.90
2023-05-05T06:22:53.161Z,99.90
2023-05-05T06:25:20.246Z,99.90
2023-05-05T06:27:48.367Z,99.90
2023-05-05T06:30:16.771Z,99.90
2023-05-05T06:32:43.787Z,99.90
2023-05-05T06:35:11.008Z,99.90
2023-05-05T06:37:38.053Z,99.90
2023-05-05T06:40:06.952Z,99.90
2023-05-05T06:42:34.272Z,99.90
2023-05-05T06:45:04.366Z,99.90
2023-05-05T06:47:33.141Z,99.90
2023-05-05T06:50:00.001Z,99.90
2023-05-05T06:52:26.807Z,99.90
2023-05-05T06:54:53.684Z,99.90
2023-05-05T06:57:20.717Z,99.90
2023-05-05T06:59:47.560Z,99.90
2023-05-05T07:02:14.390Z,99.90
2023-05-05T07:04:43.125Z,99.90
2023-05-05T07:07:09.970Z,99.90
2023-05-05T07:09:36.983Z,99.90
2023-05-05T07:12:04.397Z,99.90
2023-05-05T07:14:31.301Z,99.90
2023-05-05T07:16:58.436Z,99.90
2023-05-05T07:19:25.552Z,99.90
2023-05-05T07:21:53.748Z,99.90
2023-05-05T07:24:20.613Z,99.90
2023-05-05T07:26:47.485Z,99.90
2023-05-05T07:29:14.325Z,99.90
2023-05-05T07:31:41.262Z,99.90
2023-05-05T07:34:08.104Z,99.90
2023-05-05T07:36:35.138Z,99.90
2023-05-05T07:39:03.379Z,99.90
2023-05-05T07:41:30.370Z,99.90
2023-05-05T07:43:57.493Z,99.90
2023-05-05T07:46:24.420Z,99.90
2023-05-05T07:48:51.605Z,99.90
2023-05-05T07:51:18.485Z,99.90
2023-05-05T07:53:45.730Z,99.90
2023-05-05T07:56:13.968Z,99.90
2023-05-05T07:58:40.886Z,99.90
2023-05-05T08:01:10.796Z,99.90
2023-05-05T08:03:37.955Z,99.90
2023-05-05T08:06:08.441Z,99.90
2023-05-05T08:08:35.484Z,99.90
2023-05-05T08:11:02.495Z,99.90
2023-05-05T08:13:31.032Z,99.90
2023-05-05T08:15:58.022Z,99.90
2023-05-05T08:18:24.990Z,99.90
2023-05-05T08:20:52.861Z,99.90
2023-05-05T08:23:19.732Z,99.90
2023-05-05T08:25:46.670Z,99.90
2023-05-05T08:28:13.547Z,99.90
2023-05-05T08:30:42.675Z,99.90
2023-05-05T08:33:09.568Z,99.90
2023-05-05T08:35:36.682Z,99.90
2023-05-05T08:38:03.560Z,99.90
2023-05-05T08:40:36.551Z,99.90
2023-05-05T08:43:03.962Z,99.90
2023-05-05T08:45:31.348Z,99.90
2023-05-05T08:48:02.100Z,99.90
2023-05-05T08:50:29.880Z,99.90
2023-05-05T08:53:07.950Z,99.90
2023-05-05T08:55:35.712Z,99.90
2023-05-05T08:58:05.780Z,99.90
2023-05-05T09:00:33.424Z,99.90
2023-05-05T09:03:02.037Z,99.90
2023-05-05T09:05:28.996Z,99.90
2023-05-05T09:07:55.956Z,99.90
2023-05-05T09:10:23.277Z,99.90
2023-05-05T09:12:51.512Z,99.90
2023-05-05T09:15:18.702Z,99.90
2023-05-05T09:17:45.817Z,99.90
2023-05-05T09:20:14.870Z,99.90
2023-05-05T09:22:43.331Z,99.90
2023-05-05T09:25:12.005Z,99.90
2023-05-05T09:27:41.204Z,99.90
2023-05-05T09:30:09.387Z,99.90
2023-05-05T09:32:46.485Z,99.90
2023-05-05T09:35:15.826Z,99.90
2023-05-05T09:37:42.966Z,99.90
2023-05-05T09:40:12.054Z,99.90
2023-05-05T09:42:39.870Z,99.90
2023-05-05T09:45:25.626Z,99.90
2023-05-05T09:47:58.804Z,99.90
2023-05-05T09:50:30.986Z,99.90
2023-05-05T09:52:59.405Z,99.90
2023-05-05T09:55:26.657Z,99.90
2023-05-05T09:57:53.547Z,99.90
2023-05-05T10:00:21.130Z,99.90
2023-05-05T10:02:48.070Z,99.90
2023-05-05T10:05:16.592Z,99.90
2023-05-05T10:07:46.906Z,99.90
2023-05-05T10:10:15.264Z,99.90
2023-05-05T10:12:42.698Z,99.90
2023-05-05T10:15:11.193Z,99.90
2023-05-05T10:18:02.402Z,99.90
2023-05-05T10:20:33.454Z,99.90
2023-05-05T10:23:05.489Z,99.90
2023-05-05T10:25:42.548Z,99.90
2023-05-05T10:28:11.803Z,98.80
2023-05-05T10:30:44.223Z,99.50
2023-05-05T10:33:30.842Z,99.20
2023-05-05T10:36:01.668Z,98.70
2023-05-05T10:38:31.136Z,99.00
2023-05-05T10:40:59.860Z,98.70
2023-05-05T10:43:28.428Z,98.70
2023-05-05T10:45:56.177Z,99.70
2023-05-05T10:48:29.806Z,99.90
2023-05-05T10:51:06.161Z,99.90
2023-05-05T10:53:41.583Z,99.90
2023-05-05T10:56:14.707Z,99.90
2023-05-05T10:58:58.315Z,99.90
2023-05-05T11:01:32.990Z,99.90
2023-05-05T11:04:20.233Z,99.90
2023-05-05T11:07:22.365Z,99.90
2023-05-05T11:09:58.023Z,99.90
2023-05-05T11:12:24.993Z,99.90
2023-05-05T11:15:37.943Z,99.70
2023-05-05T11:18:08.000Z,99.90
2023-05-05T11:21:08.784Z,99.90
2023-05-05T11:23:35.735Z,99.90
2023-05-05T11:26:04.102Z,99.90
2023-05-05T11:28:31.558Z,99.90
2023-05-05T11:31:25.759Z,99.90
2023-05-05T11:33:53.052Z,99.90
2023-05-05T11:36:21.566Z,99.50
2023-05-05T11:39:07.539Z,98.80
2023-05-05T11:42:12.692Z,99.60
2023-05-05T11:44:39.813Z,98.80
2023-05-05T11:47:26.885Z,97.90
2023-05-05T11:49:53.838Z,96.80
2023-05-05T11:52:20.776Z,96.80
2023-05-05T11:54:48.994Z,95.50
2023-05-05T11:57:20.940Z,94.40
2023-05-05T11:59:54.652Z,93.50
2023-05-05T12:02:22.842Z,92.00
2023-05-05T12:04:50.634Z,90.80
2023-05-05T12:07:18.677Z,91.00
2023-05-05T12:09:46.558Z,91.20
2023-05-05T12:12:14.125Z,91.40
2023-05-05T12:14:53.092Z,91.90
2023-05-05T12:17:20.950Z,91.70
2023-05-05T12:19:49.565Z,91.90
2023-05-05T12:22:24.112Z,92.50
2023-05-05T12:24:55.267Z,92.30
2023-05-05T12:27:22.431Z,92.90
2023-05-05T12:29:51.014Z,92.80
2023-05-05T12:32:22.676Z,92.10
2023-05-05T12:34:54.003Z,92.60
2023-05-05T12:37:21.740Z,93.20
2023-05-05T12:39:48.767Z,93.90
2023-05-05T12:42:16.535Z,93.90
2023-05-05T12:44:44.327Z,94.10
2023-05-05T12:47:13.335Z,93.50
2023-05-05T12:49:48.386Z,93.30
2023-05-05T12:52:16.394Z,93.60
2023-05-05T12:54:56.909Z,94.10
2023-05-05T12:57:24.169Z,92.70
2023-05-05T12:59:51.656Z,92.80
2023-05-05T13:02:20.869Z,92.30
2023-05-05T13:04:50.245Z,92.40
2023-05-05T13:07:19.488Z,92.50
2023-05-05T13:09:47.514Z,91.90
2023-05-05T13:12:15.627Z,91.30
2023-05-05T13:14:42.854Z,91.10
2023-05-05T13:17:10.159Z,90.70
2023-05-05T13:19:42.696Z,90.50
2023-05-05T13:22:10.120Z,88.60
2023-05-05T13:24:49.752Z,89.70
2023-05-05T13:27:19.502Z,90.10
2023-05-05T13:29:46.669Z,90.30
2023-05-05T13:32:14.110Z,90.20
2023-05-05T13:34:43.574Z,90.10
2023-05-05T13:37:10.590Z,90.50
2023-05-05T13:39:37.494Z,90.20
2023-05-05T13:42:04.661Z,90.00
2023-05-05T13:44:31.577Z,90.20
2023-05-05T13:46:58.838Z,90.00
2023-05-05T13:49:25.937Z,87.60
2023-05-05T13:51:55.125Z,87.40
2023-05-05T13:54:22.082Z,85.30
2023-05-05T13:56:48.924Z,85.00
2023-05-05T13:59:15.774Z,84.80
2023-05-05T14:01:42.687Z,83.90
2023-05-05T14:04:09.635Z,83.70
2023-05-05T14:06:36.562Z,83.40
2023-05-05T14:09:06.274Z,85.50
2023-05-05T14:11:33.655Z,87.00
2023-05-05T14:14:00.679Z,87.90
2023-05-05T14:16:27.641Z,89.60
2023-05-05T14:18:54.530Z,90.30
2023-05-05T14:21:21.486Z,90.60
2023-05-05T14:23:48.392Z,90.80
2023-05-05T14:26:16.774Z,91.10
2023-05-05T14:28:44.445Z,91.10
2023-05-05T14:31:11.499Z,91.80
2023-05-05T14:33:38.384Z,92.20
2023-05-05T14:36:06.056Z,91.90
2023-05-05T14:38:33.010Z,92.20
2023-05-05T14:41:00.007Z,92.30
2023-05-05T14:43:28.518Z,92.30
2023-05-05T14:45:55.880Z,92.60
2023-05-05T14:48:22.865Z,92.30
2023-05-05T14:50:49.926Z,92.10
2023-05-05T14:53:18.816Z,91.90
2023-05-05T14:55:45.753Z,91.90
2023-05-05T14:58:12.628Z,91.80
2023-05-05T15:00:40.863Z,91.90
2023-05-05T15:03:07.960Z,91.70
2023-05-05T15:05:35.184Z,92.00
2023-05-05T15:08:02.077Z,92.10
2023-05-05T15:10:28.997Z,92.10
2023-05-05T15:12:55.908Z,92.30
2023-05-05T15:15:22.792Z,92.30
2023-05-05T15:17:51.381Z,92.60
2023-05-05T15:20:18.255Z,92.50
2023-05-05T15:22:45.118Z,92.70
2023-05-05T15:25:14.728Z,92.90
2023-05-05T15:27:41.895Z,93.10
2023-05-05T15:30:09.706Z,93.30
2023-05-05T15:32:36.746Z,93.50
2023-05-05T15:35:06.120Z,93.50
2023-05-05T15:37:33.197Z,93.50
2023-05-05T15:40:00.197Z,93.80
2023-05-05T15:42:27.071Z,93.80
2023-05-05T15:44:53.990Z,93.80
2023-05-05T15:47:20.791Z,93.90
2023-05-05T15:49:47.662Z,94.10
2023-05-05T15:52:15.920Z,95.00
2023-05-05T15:54:43.507Z,95.50
2023-05-05T15:57:10.548Z,95.80
2023-05-05T15:59:37.494Z,96.20
2023-05-05T16:02:04.370Z,96.70
2023-05-05T16:04:31.232Z,97.20
2023-05-05T16:06:58.164Z,97.40
2023-05-05T16:09:26.602Z,97.80
2023-05-05T16:11:54.334Z,98.30
2023-05-05T16:14:21.158Z,98.10
2023-05-05T16:16:48.066Z,98.50
2023-05-05T16:19:15.084Z,99.20
2023-05-05T16:21:42.001Z,99.60
2023-05-05T16:24:08.989Z,99.90
2023-05-05T16:26:37.268Z,99.90
2023-05-05T16:29:04.133Z,99.90
2023-05-05T16:31:33.804Z,99.90
2023-05-05T16:34:00.894Z,99.90
2023-05-05T16:36:28.330Z,99.90
2023-05-05T16:38:56.100Z,99.90
2023-05-05T16:41:23.317Z,99.90
2023-05-05T16:43:51.768Z,99.90
2023-05-05T16:46:18.804Z,99.90
2023-05-05T16:48:46.065Z,99.90
2023-05-05T16:51:12.974Z,99.90
2023-05-05T16:53:40.112Z,99.90
2023-05-05T16:56:07.268Z,99.90
2023-05-05T16:58:34.114Z,99.90
2023-05-05T17:01:03.704Z,99.90
2023-05-05T17:03:30.835Z,99.90
2023-05-05T17:05:57.981Z,99.90
2023-05-05T17:08:24.959Z,99.90
2023-05-05T17:10:51.864Z,99.90
2023-05-05T17:13:19.335Z,99.90
2023-05-05T17:15:46.330Z,99.90
2023-05-05T17:18:14.758Z,99.90
2023-05-05T17:20:41.713Z,99.90
2023-05-05T17:23:08.811Z,99.90
2023-05-05T17:25:35.920Z,99.90
2023-05-05T17:28:02.822Z,99.90
2023-05-05T17:30:29.643Z,99.90
2023-05-05T17:32:56.895Z,99.90
2023-05-05T17:35:25.060Z,99.90
2023-05-05T17:37:52.052Z,99.90
2023-05-05T17:40:18.851Z,99.90
2023-05-05T17:42:45.739Z,99.90
2023-05-05T17:45:12.789Z,99.90
2023-05-05T17:47:39.839Z,99.90
2023-05-05T17:50:07.645Z,99.90
2023-05-05T17:52:35.857Z,99.90
2023-05-05T17:55:02.661Z,99.90
2023-05-05T17:57:29.477Z,99.90
2023-05-05T17:59:56.323Z,99.90
2023-05-05T18:02:24.001Z,99.90
2023-05-05T18:04:51.098Z,99.90
2023-05-05T18:07:17.977Z,99.90
2023-05-05T18:09:46.156Z,99.90
2023-05-05T18:12:12.988Z,99.90
2023-05-05T18:14:39.838Z,99.90
2023-05-05T18:17:06.684Z,99.90
2023-05-05T18:19:33.560Z,99.90
2023-05-05T18:22:00.409Z,99.90
2023-05-05T18:24:28.097Z,99.90
2023-05-05T18:26:56.641Z,99.90
2023-05-05T18:29:23.551Z,99.90
2023-05-05T18:31:53.039Z,99.90
2023-05-05T18:34:20.700Z,99.90
2023-05-05T18:36:48.280Z,99.90
2023-05-05T18:39:15.248Z,99.90
2023-05-05T18:41:42.229Z,99.90
2023-05-05T18:44:10.476Z,99.90
2023-05-05T18:46:37.390Z,99.90
2023-05-05T18:49:04.358Z,99.90
2023-05-05T18:51:32.144Z,99.90
2023-05-05T18:54:00.669Z,99.90
2023-05-05T18:56:27.721Z,99.90
2023-05-05T18:58:54.590Z,99.90
2023-05-05T19:01:23.398Z,99.90
2023-05-05T19:03:50.945Z,99.90
2023-05-05T19:06:18.029Z,99.90
2023-05-05T19:08:45.908Z,99.90
2023-05-05T19:11:14.782Z,99.90
2023-05-05T19:13:41.958Z,99.90
2023-05-05T19:16:10.289Z,99.90
2023-05-05T19:18:38.790Z,99.90
2023-05-05T19:21:05.777Z,99.90
2023-05-05T19:23:33.235Z,99.90
2023-05-05T19:26:00.118Z,99.90
2023-05-05T19:28:27.063Z,99.90
2023-05-05T19:30:53.967Z,99.90
2023-05-05T19:33:21.049Z,99.90
2023-05-05T19:35:49.362Z,99.90
2023-05-05T19:38:16.295Z,99.90
2023-05-05T19:40:43.156Z,99.90
2023-05-05T19:43:10.028Z,99.90
2023-05-05T19:45:36.982Z,99.90
2023-05-05T19:48:04.216Z,99.90
2023-05-05T19:50:31.654Z,99.90
2023-05-05T19:52:59.909Z,99.90
2023-05-05T19:55:26.803Z,99.90
2023-05-05T19:57:53.688Z,99.90
2023-05-05T20:00:20.648Z,99.90
2023-05-05T20:02:49.088Z,99.90
2023-05-05T20:05:17.398Z,99.90
2023-05-05T20:07:45.036Z,99.90
2023-05-05T20:10:13.578Z,99.90
2023-05-05T20:12:42.352Z,99.90
2023-05-05T20:15:11.463Z,99.90
2023-05-05T20:17:38.350Z,99.90
2023-05-05T20:20:06.599Z,99.90
2023-05-05T20:22:33.474Z,99.90
2023-05-05T20:25:00.360Z,99.90
2023-05-05T20:27:28.840Z,99.90
2023-05-05T20:29:55.977Z,99.90
2023-05-05T20:32:22.906Z,99.90
2023-05-05T20:34:49.753Z,99.90
2023-05-05T20:37:16.608Z,99.90
2023-05-05T20:39:43.772Z,99.90
2023-05-05T20:42:10.925Z,99.90
2023-05-05T20:44:40.050Z,99.90
2023-05-05T20:47:07.398Z,99.90
2023-05-05T20:49:34.659Z,99.90
2023-05-05T20:52:01.516Z,99.90
2023-05-05T20:54:32.773Z,99.90
2023-05-05T20:56:59.795Z,99.90
2023-05-05T20:59:28.201Z,99.90
2023-05-05T21:01:57.676Z,99.90
2023-05-05T21:04:24.738Z,99.90
2023-05-05T21:06:51.767Z,99.90
2023-05-05T21:09:19.906Z,99.90
2023-05-05T21:11:47.139Z,99.90
2023-05-05T21:14:14.049Z,99.90
2023-05-05T21:16:41.089Z,99.90
2023-05-05T21:19:09.332Z,99.90
2023-05-05T21:21:36.216Z,99.90
2023-05-05T21:24:04.864Z,99.90
2023-05-05T21:26:32.395Z,99.90
2023-05-05T21:28:59.355Z,99.90
2023-05-05T21:31:26.232Z,99.90
2023-05-05T21:33:54.178Z,99.90
2023-05-05T21:36:22.437Z,99.90
2023-05-05T21:38:49.914Z,99.90
2023-05-05T21:41:16.828Z,99.90
2023-05-05T21:43:43.797Z,99.90
2023-05-05T21:46:10.672Z,99.90
2023-05-05T21:48:39.010Z,99.90
2023-05-05T21:51:06.701Z,99.90
2023-05-05T21:53:35.120Z,99.90
2023-05-05T21:56:02.043Z,99.90
2023-05-05T21:58:29.238Z,99.90
2023-05-05T22:00:56.482Z,99.90
2023-05-05T22:03:23.598Z,99.90
2023-05-05T22:05:51.017Z,99.90
2023-05-05T22:08:17.973Z,99.90
2023-05-05T22:10:46.775Z,99.90
2023-05-05T22:13:14.566Z,99.90
2023-05-05T22:15:46.667Z,99.90
2023-05-05T22:18:14.354Z,99.90
2023-05-05T22:20:41.336Z,99.90
2023-05-05T22:23:08.321Z,99.90
2023-05-05T22:25:35.594Z,99.90
2023-05-05T22:28:04.451Z,99.90
2023-05-05T22:30:31.384Z,99.90
2023-05-05T22:32:58.366Z,99.90
2023-05-05T22:35:25.276Z,99.90
2023-05-05T22:37:52.107Z,99.90
2023-05-05T22:40:18.961Z,99.90
2023-05-05T22:42:45.824Z,99.90
2023-05-05T22:45:14.439Z,99.90
2023-05-05T22:47:41.584Z,99.90
2023-05-05T22:50:09.175Z,99.90
2023-05-05T22:52:36.535Z,99.90
2023-05-05T22:55:03.721Z,99.90
2023-05-05T22:57:30.774Z,99.90
2023-05-05T22:59:57.671Z,99.90
2023-05-05T23:02:26.796Z,99.90
2023-05-05T23:04:53.752Z,99.90
2023-05-05T23:07:20.831Z,99.90
2023-05-05T23:09:47.928Z,99.90
2023-05-05T23:12:14.963Z,99.90
2023-05-05T23:14:41.892Z,99.90
2023-05-05T23:17:09.032Z,99.90
2023-05-05T23:19:37.447Z,99.90
2023-05-05T23:22:04.847Z,99.90
2023-05-05T23:24:31.779Z,99.90
2023-05-05T23:26:59.674Z,99.90
2023-05-05T23:29:26.611Z,99.90
2023-05-05T23:31:53.487Z,99.90
2023-05-05T23:34:20.335Z,99.90
2023-05-05T23:36:48.501Z,99.90
2023-05-05T23:39:15.482Z,99.90
2023-05-05T23:41:42.359Z,99.90
2023-05-05T23:44:09.256Z,99.90
2023-05-05T23:46:36.312Z,99.90
2023-05-05T23:49:03.324Z,99.90
2023-05-05T23:51:30.976Z,99.90
2023-05-05T23:53:59.410Z,99.90
2023-05-05T23:56:26.392Z,99.90
2023-05-05T23:58:53.673Z,99.90
